METAR Data
IDs: Format: Raw Decoded Include TAF

Data at: 1352 UTC 07 Jul 2020

KSYI 071335Z AUTO 18003KT 10SM CLR 26/22 A3004 RMK A01
KSYI 071315Z AUTO 00000KT 10SM CLR 26/21 A3003 RMK A01
KSYI 071255Z AUTO 19004KT 10SM CLR 25/22 A3002 RMK A01
KSYI 071235Z AUTO 20004KT 10SM CLR 25/22 A3002 RMK A01
KSYI 071215Z AUTO 00000KT 10SM CLR 24/22 A3001 RMK A01
KSYI 071155Z AUTO 00000KT 10SM CLR 23/21 A3001 RMK A01
KSYI 071135Z AUTO 00000KT 10SM CLR 22/21 A3001 RMK A01
KSYI 071115Z AUTO 00000KT 10SM CLR 21/21 A3000 RMK A01
KSYI 071055Z AUTO 00000KT 10SM CLR 21/20 A3000 RMK A01
KSYI 071035Z AUTO 00000KT 10SM CLR 21/21 A3000 RMK A01
KSYI 071015Z AUTO 00000KT 10SM CLR 21/21 A2999 RMK A01
KSYI 070955Z AUTO 12004KT 10SM CLR 21/21 A2999 RMK A01
KSYI 070935Z AUTO 13003KT 10SM CLR 21/21 A2999 RMK A01
KSYI 070915Z AUTO 00000KT 10SM CLR 21/21 A2999 RMK A01
KSYI 070855Z AUTO 09003KT 10SM CLR 22/21 A2998 RMK A01
KSYI 070835Z AUTO 14003KT 10SM CLR 22/21 A2998 RMK A01
KSYI 070815Z AUTO 11003KT 10SM SCT060 22/21 A2998 RMK A01
KSYI 070755Z AUTO 00000KT 10SM SCT050 OVC055 22/22 A2998 RMK A01
KSYI 070735Z AUTO 00000KT 10SM BKN050 BKN055 22/21 A2998 RMK A01
KSYI 070715Z AUTO 00000KT 10SM CLR 22/21 A2999 RMK A01
KSYI 070655Z AUTO 00000KT 10SM CLR 22/21 A2998 RMK A01
KSYI 070635Z AUTO 00000KT 10SM FEW050 23/21 A2998 RMK A01
KSYI 070615Z AUTO 00000KT 10SM BKN050 24/22 A2999 RMK A01
KSYI 070555Z AUTO 19003KT 10SM CLR 24/22 A3000 RMK A01
KSYI 070535Z AUTO 14004KT 10SM SCT095 24/22 A3000 RMK A01
KSYI 070515Z AUTO 12004KT 10SM OVC095 24/22 A3000 RMK A01
KSYI 070455Z AUTO 10006KT 10SM FEW055 BKN095 24/22 A3001 RMK A01
KSYI 070435Z AUTO 11003KT 10SM SCT055 BKN095 23/22 A3000 RMK A01
KSYI 070415Z AUTO 00000KT 10SM FEW060 BKN095 23/22 A3000 RMK A01
KSYI 070355Z AUTO 00000KT 10SM BKN090 24/22 A3000 RMK A01
KSYI 070335Z AUTO 03004KT 10SM BKN085 24/23 A3000 RMK A01
KSYI 070315Z AUTO 00000KT 10SM FEW075 BKN085 24/23 A2999 RMK A01
KSYI 070255Z AUTO 00000KT 10SM BKN070 OVC090 24/23 A2998 RMK A01
KSYI 070235Z AUTO 00000KT 10SM OVC070 24/23 A2999 RMK A01
KSYI 070215Z AUTO 00000KT 10SM BKN075 BKN085 24/23 A2998 RMK A01
KSYI 070155Z AUTO 00000KT 10SM FEW075 SCT085 24/23 A2999 RMK A01
KSYI 070135Z AUTO 00000KT 10SM CLR 24/23 A2998 RMK A01
KSYI 070115Z AUTO 00000KT 10SM CLR 25/23 A2998 RMK A01
KSYI 070055Z AUTO 00000KT 10SM CLR 26/24 A2997 RMK A01
KSYI 070035Z AUTO 00000KT 10SM CLR 27/24 A2997 RMK A01
KSYI 070015Z AUTO 00000KT 10SM CLR 29/23 A2996 RMK A01
KSYI 062355Z AUTO 00000KT 10SM CLR 30/22 A2996 RMK A01
KSYI 062335Z AUTO 00000KT 10SM CLR 29/22 A2996 RMK A01
KSYI 062315Z AUTO 17005KT 10SM CLR 30/22 A2996 RMK A01
KSYI 062255Z AUTO 00000KT 10SM CLR 30/21 A2996 RMK A01
KSYI 062235Z AUTO 00000KT 10SM CLR 30/21 A2996 RMK A01
KSYI 062215Z AUTO 00000KT 10SM CLR 30/20 A2997 RMK A01
KSYI 062155Z AUTO 13004KT 10SM CLR 31/21 A2997 RMK A01
KSYI 062135Z AUTO 00000KT 10SM CLR 30/21 A2997 RMK A01
KSYI 062115Z AUTO 00000KT 10SM CLR 30/21 A2997 RMK A01
KSYI 062055Z AUTO 11005KT 10SM CLR 30/21 A2997 RMK A01
KSYI 062035Z AUTO 11003KT 10SM CLR 30/21 A2998 RMK A01
KSYI 062015Z AUTO VRB05KT 10SM CLR 29/20 A2998 RMK A01
KSYI 061955Z AUTO 13006KT 10SM CLR 29/21 A2999 RMK A01
KSYI 061935Z AUTO 00000KT 10SM SCT047 30/21 A3000 RMK A01
KSYI 061915Z AUTO 00000KT 10SM SCT046 SCT050 30/21 A3000 RMK A01
KSYI 061855Z AUTO 00000KT 10SM CLR 30/20 A3000 RMK A01
KSYI 061835Z AUTO 00000KT 10SM CLR 29/20 A3001 RMK A01
KSYI 061815Z AUTO 15006KT 10SM CLR 29/21 A3001 RMK A01
KSYI 061755Z AUTO 17004KT 10SM CLR 29/22 A3002 RMK A01
KSYI 061730Z AUTO 00000KT 10SM FEW060 29/22 A3003 RMK A01
KSYI 061715Z AUTO 13007KT 10SM SCT060 29/21 A3003 RMK A01
KSYI 061655Z AUTO 13004KT 10SM SCT060 29/22 A3003 RMK A01
KSYI 061635Z AUTO 13006KT 10SM FEW060 29/22 A3003 RMK A01
KSYI 061615Z AUTO 13004KT 10SM CLR 29/22 A3004 RMK A01
KSYI 061555Z AUTO 00000KT 10SM FEW060 29/22 A3004 RMK A01
KSYI 061535Z AUTO 00000KT 10SM BKN060 29/22 A3004 RMK A01
KSYI 061515Z AUTO 00000KT 10SM CLR 28/22 A3004 RMK A01
KSYI 061455Z AUTO 14005KT 10SM CLR 29/22 A3003 RMK A01
KSYI 061435Z AUTO 15005KT 10SM CLR 28/22 A3003 RMK A01
KSYI 061415Z AUTO 16005KT 10SM CLR 28/22 A3003 RMK A01
KSYI 061355Z AUTO 13004KT 10SM CLR 27/22 A3003 RMK A01
KSYI 061335Z AUTO 16004KT 10SM FEW070 27/21 A3003 RMK A01
KSYI 061315Z AUTO 00000KT 10SM FEW060 BKN070 26/22 A3003 RMK A01
KSYI 061255Z AUTO 00000KT 10SM BKN060 BKN070 24/22 A3003 RMK A01
KSYI 061235Z AUTO 00000KT 9SM OVC060 23/22 A3003 RMK A01
KSYI 061215Z AUTO 00000KT 9SM BKN060 23/22 A3001 RMK A01
KSYI 061155Z AUTO 00000KT 7SM CLR 22/22 A3000 RMK A01
KSYI 061135Z AUTO 00000KT 6SM BR CLR 21/21 A3000 RMK A01
KSYI 061115Z AUTO 00000KT 5SM BR CLR 21/21 A2999 RMK A01
KSYI 061055Z AUTO 00000KT 4SM BR CLR 20/20 A2998 RMK A01
KSYI 061035Z AUTO 00000KT 4SM BR CLR 20/20 A2998 RMK A01
KSYI 061015Z AUTO 00000KT 6SM BR CLR 20/20 A2998 RMK A01
KSYI 060955Z AUTO 00000KT 6SM BR CLR 20/20 A2997 RMK A01
KSYI 060935Z AUTO 00000KT 6SM BR CLR 20/20 A2997 RMK A01
KSYI 060915Z AUTO 00000KT 4SM BR CLR 20/20 A2995 RMK A01
KSYI 060855Z AUTO 00000KT 5SM BR CLR 20/20 A2995 RMK A01
KSYI 060835Z AUTO 00000KT 8SM CLR 21/20 A2995 RMK A01
KSYI 060815Z AUTO 00000KT 9SM CLR 21/21 A2995 RMK A01
KSYI 060755Z AUTO 00000KT 7SM CLR 21/20 A2995 RMK A01
KSYI 060735Z AUTO 00000KT 9SM CLR 21/21 A2994 RMK A01
KSYI 060715Z AUTO 00000KT 9SM CLR 21/21 A2994 RMK A01
KSYI 060655Z AUTO 00000KT 8SM CLR 21/21 A2995 RMK A01
KSYI 060635Z AUTO 00000KT 8SM CLR 21/21 A2995 RMK A01
KSYI 060615Z AUTO 00000KT 8SM CLR 21/21 A2996 RMK A01
KSYI 060555Z AUTO 12004KT 7SM CLR 22/21 A2996 RMK A01
KSYI 060530Z AUTO 00000KT 9SM CLR 22/21 A2997 RMK A01
KSYI 060515Z AUTO 00000KT 9SM CLR 22/21 A2996 RMK A01
KSYI 060455Z AUTO 00000KT 10SM CLR 22/21 A2996 RMK A01
KSYI 060435Z AUTO 00000KT 10SM CLR 22/21 A2997 RMK A01
KSYI 060415Z AUTO 00000KT 10SM CLR 22/21 A2998 RMK A01
KSYI 060355Z AUTO 00000KT 10SM CLR 22/21 A2998 RMK A01
KSYI 060335Z AUTO 00000KT 10SM CLR 22/21 A2999 RMK A01
KSYI 060315Z AUTO 23004KT 10SM CLR 23/22 A2999 RMK A01
KSYI 060255Z AUTO 00000KT 10SM SCT049 SCT065 23/22 A2999 RMK A01
KSYI 060235Z AUTO 24004KT 10SM SCT050 BKN060 23/22 A2999 RMK A01
KSYI 060215Z AUTO 00000KT 10SM CLR 23/21 A2997 RMK A01
KSYI 060155Z AUTO 00000KT 10SM CLR 23/21 A2997 RMK A01